sensor_id;sensor_type;location;lat;lon;timestamp;temperature;humidity
50989;DHT22;37008;52.210;21.112;2022-07-29T00:02:14;11.10;99.90
50989;DHT22;37008;52.210;21.112;2022-07-29T00:04:39;11.10;99.90
50989;DHT22;37008;52.210;21.112;2022-07-29T00:07:05;11.10;99.90
50989;DHT22;37008;52.210;21.112;2022-07-29T00:09:31;11.10;99.90
50989;DHT22;37008;52.210;21.112;2022-07-29T00:11:59;11.10;99.90
50989;DHT22;37008;52.210;21.112;2022-07-29T00:14:25;11.10;99.90
50989;DHT22;37008;52.210;21.112;2022-07-29T00:16:51;11.00;99.90
50989;DHT22;37008;52.210;21.112;2022-07-29T00:19:17;10.90;99.90
50989;DHT22;37008;52.210;21.112;2022-07-29T00:21:42;10.90;99.90
50989;DHT22;37008;52.210;21.112;2022-07-29T00:24:08;10.90;99.90
50989;DHT22;37008;52.210;21.112;2022-07-29T00:26:34;10.90;99.90
50989;DHT22;37008;52.210;21.112;2022-07-29T00:29:00;10.80;99.90
50989;DHT22;37008;52.210;21.112;2022-07-29T00:31:27;10.80;99.90
50989;DHT22;37008;52.210;21.112;2022-07-29T00:33:53;10.80;99.90
50989;DHT22;37008;52.210;21.112;2022-07-29T00:36:18;10.80;99.90
50989;DHT22;37008;52.210;21.112;2022-07-29T00:38:46;10.80;99.90
50989;DHT22;37008;52.210;21.112;2022-07-29T00:41:12;10.90;99.90
50989;DHT22;37008;52.210;21.112;2022-07-29T00:43:38;10.90;99.90
50989;DHT22;37008;52.210;21.112;2022-07-29T00:46:03;11.00;99.90
50989;DHT22;37008;52.210;21.112;2022-07-29T00:48:29;10.90;99.90
50989;DHT22;37008;52.210;21.112;2022-07-29T00:50:57;10.90;99.90
50989;DHT22;37008;52.210;21.112;2022-07-29T00:53:24;10.80;99.90
50989;DHT22;37008;52.210;21.112;2022-07-29T00:55:50;10.80;99.90
50989;DHT22;37008;52.210;21.112;2022-07-29T00:58:16;10.90;99.90
50989;DHT22;37008;52.210;21.112;2022-07-29T01:00:42;10.90;99.90
50989;DHT22;37008;52.210;21.112;2022-07-29T01:03:08;10.80;99.90
50989;DHT22;37008;52.210;21.112;2022-07-29T01:05:34;10.90;99.90
50989;DHT22;37008;52.210;21.112;2022-07-29T01:08:00;10.90;99.90
50989;DHT22;37008;52.210;21.112;2022-07-29T01:10:27;10.80;99.90
50989;DHT22;37008;52.210;21.112;2022-07-29T01:12:57;10.90;99.90
50989;DHT22;37008;52.210;21.112;2022-07-29T01:15:23;10.90;99.90
50989;DHT22;37008;52.210;21.112;2022-07-29T01:23:40;10.90;99.90
50989;DHT22;37008;52.210;21.112;2022-07-29T01:34:05;10.80;99.90
50989;DHT22;37008;52.210;21.112;2022-07-29T01:36:36;10.80;99.90
50989;DHT22;37008;52.210;21.112;2022-07-29T01:42:27;10.80;99.90
50989;DHT22;37008;52.210;21.112;2022-07-29T01:50:18;10.90;99.90
50989;DHT22;37008;52.210;21.112;2022-07-29T01:52:56;10.90;99.90
50989;DHT22;37008;52.210;21.112;2022-07-29T01:55:27;10.90;99.90
50989;DHT22;37008;52.210;21.112;2022-07-29T01:57:55;10.80;99.90
50989;DHT22;37008;52.210;21.112;2022-07-29T02:00:22;10.80;99.90
50989;DHT22;37008;52.210;21.112;2022-07-29T02:02:48;10.80;99.90
50989;DHT22;37008;52.210;21.112;2022-07-29T02:05:18;10.70;99.90
50989;DHT22;37008;52.210;21.112;2022-07-29T02:07:46;10.70;99.90
50989;DHT22;37008;52.210;21.112;2022-07-29T02:10:14;10.70;99.90
50989;DHT22;37008;52.210;21.112;2022-07-29T02:12:43;10.70;99.90
50989;DHT22;37008;52.210;21.112;2022-07-29T02:15:11;10.70;99.90
50989;DHT22;37008;52.210;21.112;2022-07-29T02:17:45;10.60;99.90
50989;DHT22;37008;52.210;21.112;2022-07-29T02:20:14;10.60;99.90
50989;DHT22;37008;52.210;21.112;2022-07-29T02:22:41;10.60;99.90
50989;DHT22;37008;52.210;21.112;2022-07-29T02:25:10;10.60;99.90
50989;DHT22;37008;52.210;21.112;2022-07-29T02:27:38;10.60;99.90
50989;DHT22;37008;52.210;21.112;2022-07-29T02:30:05;10.60;99.90
50989;DHT22;37008;52.210;21.112;2022-07-29T02:32:34;10.60;99.90
50989;DHT22;37008;52.210;21.112;2022-07-29T02:35:02;10.70;99.90
50989;DHT22;37008;52.210;21.112;2022-07-29T02:37:28;10.70;99.90
50989;DHT22;37008;52.210;21.112;2022-07-29T02:39:55;10.70;99.90
50989;DHT22;37008;52.210;21.112;2022-07-29T02:42:22;10.70;99.90
50989;DHT22;37008;52.210;21.112;2022-07-29T02:44:49;10.70;99.90
50989;DHT22;37008;52.210;21.112;2022-07-29T02:47:27;10.70;99.90
50989;DHT22;37008;52.210;21.112;2022-07-29T02:50:15;10.60;99.90
50989;DHT22;37008;52.210;21.112;2022-07-29T02:55:29;10.60;99.90
50989;DHT22;37008;52.210;21.112;2022-07-29T02:58:01;10.60;99.90
50989;DHT22;37008;52.210;21.112;2022-07-29T03:00:29;10.60;99.90
50989;DHT22;37008;52.210;21.112;2022-07-29T03:02:59;10.70;99.90
50989;DHT22;37008;52.210;21.112;2022-07-29T03:05:27;10.70;99.90
50989;DHT22;37008;52.210;21.112;2022-07-29T03:07:56;10.60;99.90
50989;DHT22;37008;52.210;21.112;2022-07-29T03:10:24;10.60;99.90
50989;DHT22;37008;52.210;21.112;2022-07-29T03:12:51;10.60;99.90
50989;DHT22;37008;52.210;21.112;2022-07-29T03:15:17;10.60;99.90
50989;DHT22;37008;52.210;21.112;2022-07-29T03:17:43;10.50;99.90
50989;DHT22;37008;52.210;21.112;2022-07-29T03:20:11;10.50;99.90
50989;DHT22;37008;52.210;21.112;2022-07-29T03:22:42;10.50;99.90
50989;DHT22;37008;52.210;21.112;2022-07-29T03:25:12;10.40;99.90
50989;DHT22;37008;52.210;21.112;2022-07-29T03:27:38;10.40;99.90
50989;DHT22;37008;52.210;21.112;2022-07-29T03:30:04;10.40;99.90
50989;DHT22;37008;52.210;21.112;2022-07-29T03:32:30;10.50;99.90
50989;DHT22;37008;52.210;21.112;2022-07-29T03:34:56;10.60;99.90
50989;DHT22;37008;52.210;21.112;2022-07-29T03:37:21;10.70;99.90
50989;DHT22;37008;52.210;21.112;2022-07-29T03:39:48;10.80;99.90
50989;DHT22;37008;52.210;21.112;2022-07-29T03:42:15;10.80;99.90
50989;DHT22;37008;52.210;21.112;2022-07-29T03:44:44;10.90;99.90
50989;DHT22;37008;52.210;21.112;2022-07-29T03:47:11;11.10;99.90
50989;DHT22;37008;52.210;21.112;2022-07-29T03:49:40;11.30;99.90
50989;DHT22;37008;52.210;21.112;2022-07-29T03:52:06;11.60;99.90
50989;DHT22;37008;52.210;21.112;2022-07-29T03:54:32;11.90;99.90
50989;DHT22;37008;52.210;21.112;2022-07-29T03:56:59;12.20;99.90
50989;DHT22;37008;52.210;21.112;2022-07-29T03:59:27;12.50;99.90
50989;DHT22;37008;52.210;21.112;2022-07-29T04:01:53;12.70;99.90
50989;DHT22;37008;52.210;21.112;2022-07-29T04:04:21;12.80;99.90
50989;DHT22;37008;52.210;21.112;2022-07-29T04:06:47;12.70;99.90
50989;DHT22;37008;52.210;21.112;2022-07-29T04:09:12;12.70;99.90
50989;DHT22;37008;52.210;21.112;2022-07-29T04:11:40;12.70;99.90
50989;DHT22;37008;52.210;21.112;2022-07-29T04:14:06;12.60;99.90
50989;DHT22;37008;52.210;21.112;2022-07-29T04:16:32;12.60;99.90
50989;DHT22;37008;52.210;21.112;2022-07-29T04:18:58;12.60;99.90
50989;DHT22;37008;52.210;21.112;2022-07-29T04:21:24;12.60;99.90
50989;DHT22;37008;52.210;21.112;2022-07-29T04:23:49;12.60;99.90
50989;DHT22;37008;52.210;21.112;2022-07-29T04:26:19;12.60;99.90
50989;DHT22;37008;52.210;21.112;2022-07-29T04:28:45;12.70;99.90
50989;DHT22;37008;52.210;21.112;2022-07-29T04:31:12;12.70;99.90
50989;DHT22;37008;52.210;21.112;2022-07-29T04:33:39;12.80;99.90
50989;DHT22;37008;52.210;21.112;2022-07-29T04:36:04;12.80;99.90
50989;DHT22;37008;52.210;21.112;2022-07-29T04:38:30;12.90;99.90
50989;DHT22;37008;52.210;21.112;2022-07-29T04:40:56;13.00;99.90
50989;DHT22;37008;52.210;21.112;2022-07-29T04:43:21;13.10;99.90
50989;DHT22;37008;52.210;21.112;2022-07-29T04:45:47;13.30;99.90
50989;DHT22;37008;52.210;21.112;2022-07-29T04:48:12;13.40;99.90
50989;DHT22;37008;52.210;21.112;2022-07-29T04:50:39;13.50;99.90
50989;DHT22;37008;52.210;21.112;2022-07-29T04:53:05;13.60;99.90
50989;DHT22;37008;52.210;21.112;2022-07-29T04:55:30;13.70;99.90
50989;DHT22;37008;52.210;21.112;2022-07-29T04:57:56;13.80;99.90
50989;DHT22;37008;52.210;21.112;2022-07-29T05:00:22;13.90;99.90
50989;DHT22;37008;52.210;21.112;2022-07-29T05:02:48;14.00;99.90
50989;DHT22;37008;52.210;21.112;2022-07-29T05:05:14;14.20;99.90
50989;DHT22;37008;52.210;21.112;2022-07-29T05:07:40;14.30;99.90
50989;DHT22;37008;52.210;21.112;2022-07-29T05:10:06;14.40;99.90
50989;DHT22;37008;52.210;21.112;2022-07-29T05:12:31;14.50;99.90
50989;DHT22;37008;52.210;21.112;2022-07-29T05:14:57;14.60;99.90
50989;DHT22;37008;52.210;21.112;2022-07-29T05:17:23;14.70;99.90
50989;DHT22;37008;52.210;21.112;2022-07-29T05:19:48;14.90;99.90
50989;DHT22;37008;52.210;21.112;2022-07-29T05:22:17;15.00;99.90
50989;DHT22;37008;52.210;21.112;2022-07-29T05:24:43;15.10;99.90
50989;DHT22;37008;52.210;21.112;2022-07-29T05:27:09;15.20;99.90
50989;DHT22;37008;52.210;21.112;2022-07-29T05:29:35;15.40;99.90
50989;DHT22;37008;52.210;21.112;2022-07-29T05:32:00;15.40;99.90
50989;DHT22;37008;52.210;21.112;2022-07-29T05:34:26;15.50;99.90
50989;DHT22;37008;52.210;21.112;2022-07-29T05:36:51;15.60;99.90
50989;DHT22;37008;52.210;21.112;2022-07-29T05:39:17;15.70;99.90
50989;DHT22;37008;52.210;21.112;2022-07-29T05:41:43;15.80;99.90
50989;DHT22;37008;52.210;21.112;2022-07-29T05:44:08;15.90;99.90
50989;DHT22;37008;52.210;21.112;2022-07-29T05:46:34;16.00;99.90
50989;DHT22;37008;52.210;21.112;2022-07-29T05:49:00;16.10;99.90
50989;DHT22;37008;52.210;21.112;2022-07-29T05:51:25;16.20;99.90
50989;DHT22;37008;52.210;21.112;2022-07-29T05:53:51;16.30;99.90
50989;DHT22;37008;52.210;21.112;2022-07-29T05:56:17;16.30;99.90
50989;DHT22;37008;52.210;21.112;2022-07-29T05:58:42;16.40;99.90
50989;DHT22;37008;52.210;21.112;2022-07-29T06:01:09;16.40;99.90
50989;DHT22;37008;52.210;21.112;2022-07-29T06:03:34;16.50;99.90
50989;DHT22;37008;52.210;21.112;2022-07-29T06:06:00;16.60;99.90
50989;DHT22;37008;52.210;21.112;2022-07-29T06:08:25;16.70;99.90
50989;DHT22;37008;52.210;21.112;2022-07-29T06:10:51;16.80;99.90
50989;DHT22;37008;52.210;21.112;2022-07-29T06:13:17;16.90;99.70
50989;DHT22;37008;52.210;21.112;2022-07-29T06:15:42;16.90;99.00
50989;DHT22;37008;52.210;21.112;2022-07-29T06:18:08;17.00;98.40
50989;DHT22;37008;52.210;21.112;2022-07-29T06:20:35;17.20;98.00
50989;DHT22;37008;52.210;21.112;2022-07-29T06:23:01;17.30;97.70
50989;DHT22;37008;52.210;21.112;2022-07-29T06:25:29;17.40;96.70
50989;DHT22;37008;52.210;21.112;2022-07-29T06:27:55;17.40;96.20
50989;DHT22;37008;52.210;21.112;2022-07-29T06:30:21;17.50;95.50
50989;DHT22;37008;52.210;21.112;2022-07-29T06:32:47;17.60;94.80
50989;DHT22;37008;52.210;21.112;2022-07-29T06:35:13;17.60;94.50
50989;DHT22;37008;52.210;21.112;2022-07-29T06:37:39;17.70;94.30
50989;DHT22;37008;52.210;21.112;2022-07-29T06:40:04;17.80;93.90
50989;DHT22;37008;52.210;21.112;2022-07-29T06:42:48;17.90;93.50
50989;DHT22;37008;52.210;21.112;2022-07-29T06:45:14;18.00;92.70
50989;DHT22;37008;52.210;21.112;2022-07-29T06:47:41;18.10;92.10
50989;DHT22;37008;52.210;21.112;2022-07-29T06:50:07;18.20;91.70
50989;DHT22;37008;52.210;21.112;2022-07-29T06:52:37;18.30;91.60
50989;DHT22;37008;52.210;21.112;2022-07-29T06:55:03;18.40;91.50
50989;DHT22;37008;52.210;21.112;2022-07-29T06:57:28;18.50;90.90
50989;DHT22;37008;52.210;21.112;2022-07-29T06:59:56;18.60;90.00
50989;DHT22;37008;52.210;21.112;2022-07-29T07:02:22;18.70;89.40
50989;DHT22;37008;52.210;21.112;2022-07-29T07:04:48;18.80;88.70
50989;DHT22;37008;52.210;21.112;2022-07-29T07:07:13;18.90;88.20
50989;DHT22;37008;52.210;21.112;2022-07-29T07:09:39;19.00;88.00
50989;DHT22;37008;52.210;21.112;2022-07-29T07:12:05;19.10;87.90
50989;DHT22;37008;52.210;21.112;2022-07-29T07:14:31;19.20;86.80
50989;DHT22;37008;52.210;21.112;2022-07-29T07:16:57;19.30;85.90
50989;DHT22;37008;52.210;21.112;2022-07-29T07:19:22;19.30;85.30
50989;DHT22;37008;52.210;21.112;2022-07-29T07:21:48;19.40;84.60
50989;DHT22;37008;52.210;21.112;2022-07-29T07:24:14;19.50;84.20
50989;DHT22;37008;52.210;21.112;2022-07-29T07:26:39;19.60;82.00
50989;DHT22;37008;52.210;21.112;2022-07-29T07:29:05;19.70;81.40
50989;DHT22;37008;52.210;21.112;2022-07-29T07:31:31;19.80;80.10
50989;DHT22;37008;52.210;21.112;2022-07-29T07:33:57;19.80;79.50
50989;DHT22;37008;52.210;21.112;2022-07-29T07:36:23;19.90;79.50
50989;DHT22;37008;52.210;21.112;2022-07-29T07:38:49;19.90;79.20
50989;DHT22;37008;52.210;21.112;2022-07-29T07:41:14;20.00;78.50
50989;DHT22;37008;52.210;21.112;2022-07-29T07:43:40;20.00;77.80
50989;DHT22;37008;52.210;21.112;2022-07-29T07:46:06;20.10;77.30
50989;DHT22;37008;52.210;21.112;2022-07-29T07:48:31;20.10;77.20
50989;DHT22;37008;52.210;21.112;2022-07-29T07:50:57;20.20;76.30
50989;DHT22;37008;52.210;21.112;2022-07-29T07:53:23;20.30;75.80
50989;DHT22;37008;52.210;21.112;2022-07-29T07:55:48;20.40;74.40
50989;DHT22;37008;52.210;21.112;2022-07-29T07:58:14;20.40;73.70
50989;DHT22;37008;52.210;21.112;2022-07-29T08:00:39;20.50;74.10
50989;DHT22;37008;52.210;21.112;2022-07-29T08:03:05;20.50;72.80
50989;DHT22;37008;52.210;21.112;2022-07-29T08:05:31;20.60;72.30
50989;DHT22;37008;52.210;21.112;2022-07-29T08:07:56;20.60;72.20
50989;DHT22;37008;52.210;21.112;2022-07-29T08:10:22;20.70;71.30
50989;DHT22;37008;52.210;21.112;2022-07-29T08:13:17;20.80;71.10
50989;DHT22;37008;52.210;21.112;2022-07-29T08:15:43;20.90;70.70
50989;DHT22;37008;52.210;21.112;2022-07-29T08:18:10;20.90;70.10
50989;DHT22;37008;52.210;21.112;2022-07-29T08:20:36;21.10;69.30
50989;DHT22;37008;52.210;21.112;2022-07-29T08:23:04;21.10;69.20
50989;DHT22;37008;52.210;21.112;2022-07-29T08:25:32;21.30;69.30
50989;DHT22;37008;52.210;21.112;2022-07-29T08:27:58;21.40;67.90
50989;DHT22;37008;52.210;21.112;2022-07-29T08:30:24;21.50;66.60
50989;DHT22;37008;52.210;21.112;2022-07-29T08:32:50;21.60;66.10
50989;DHT22;37008;52.210;21.112;2022-07-29T08:35:19;21.70;66.30
50989;DHT22;37008;52.210;21.112;2022-07-29T08:37:45;21.90;65.90
50989;DHT22;37008;52.210;21.112;2022-07-29T08:40:11;22.20;63.10
50989;DHT22;37008;52.210;21.112;2022-07-29T08:42:37;22.30;63.00
50989;DHT22;37008;52.210;21.112;2022-07-29T08:45:04;22.50;62.40
50989;DHT22;37008;52.210;21.112;2022-07-29T08:47:30;22.50;62.10
50989;DHT22;37008;52.210;21.112;2022-07-29T08:49:55;22.50;61.30
50989;DHT22;37008;52.210;21.112;2022-07-29T08:52:22;22.50;61.50
50989;DHT22;37008;52.210;21.112;2022-07-29T08:54:51;22.50;60.90
50989;DHT22;37008;52.210;21.112;2022-07-29T08:57:17;22.60;59.80
50989;DHT22;37008;52.210;21.112;2022-07-29T08:59:44;22.80;60.40
50989;DHT22;37008;52.210;21.112;2022-07-29T09:02:20;23.10;60.10
50989;DHT22;37008;52.210;21.112;2022-07-29T09:04:46;23.20;59.20
50989;DHT22;37008;52.210;21.112;2022-07-29T09:07:15;23.30;57.90
50989;DHT22;37008;52.210;21.112;2022-07-29T09:09:42;23.30;56.90
50989;DHT22;37008;52.210;21.112;2022-07-29T09:12:08;23.30;56.50
50989;DHT22;37008;52.210;21.112;2022-07-29T09:14:37;23.30;56.10
50989;DHT22;37008;52.210;21.112;2022-07-29T09:17:02;23.40;56.10
50989;DHT22;37008;52.210;21.112;2022-07-29T09:19:33;23.50;55.20
50989;DHT22;37008;52.210;21.112;2022-07-29T09:22:01;23.50;54.40
50989;DHT22;37008;52.210;21.112;2022-07-29T09:24:37;23.40;54.10
50989;DHT22;37008;52.210;21.112;2022-07-29T09:27:09;23.40;55.20
50989;DHT22;37008;52.210;21.112;2022-07-29T09:29:36;23.50;55.30
50989;DHT22;37008;52.210;21.112;2022-07-29T09:32:06;23.60;56.10
50989;DHT22;37008;52.210;21.112;2022-07-29T09:34:33;23.60;56.20
50989;DHT22;37008;52.210;21.112;2022-07-29T09:36:58;23.60;56.90
50989;DHT22;37008;52.210;21.112;2022-07-29T09:39:35;23.40;57.10
50989;DHT22;37008;52.210;21.112;2022-07-29T09:42:06;23.30;57.00
50989;DHT22;37008;52.210;21.112;2022-07-29T09:44:49;23.10;56.00
50989;DHT22;37008;52.210;21.112;2022-07-29T09:47:16;23.10;56.40
50989;DHT22;37008;52.210;21.112;2022-07-29T09:49:57;23.30;56.10
50989;DHT22;37008;52.210;21.112;2022-07-29T09:52:24;23.50;54.30
50989;DHT22;37008;52.210;21.112;2022-07-29T09:54:50;23.70;54.00
50989;DHT22;37008;52.210;21.112;2022-07-29T09:57:26;23.80;53.10
50989;DHT22;37008;52.210;21.112;2022-07-29T10:00:08;23.80;52.60
50989;DHT22;37008;52.210;21.112;2022-07-29T10:02:36;23.90;53.50
50989;DHT22;37008;52.210;21.112;2022-07-29T10:05:04;23.80;52.70
50989;DHT22;37008;52.210;21.112;2022-07-29T10:07:51;23.90;53.00
50989;DHT22;37008;52.210;21.112;2022-07-29T10:10:24;23.90;52.70
50989;DHT22;37008;52.210;21.112;2022-07-29T10:12:53;24.00;52.20
50989;DHT22;37008;52.210;21.112;2022-07-29T10:15:19;24.00;51.40
50989;DHT22;37008;52.210;21.112;2022-07-29T10:17:46;24.00;52.20
50989;DHT22;37008;52.210;21.112;2022-07-29T10:20:14;24.10;52.90
50989;DHT22;37008;52.210;21.112;2022-07-29T10:22:40;24.20;52.50
50989;DHT22;37008;52.210;21.112;2022-07-29T10:25:07;24.20;52.70
50989;DHT22;37008;52.210;21.112;2022-07-29T10:27:35;24.20;53.70
50989;DHT22;37008;52.210;21.112;2022-07-29T10:30:00;24.20;52.80
50989;DHT22;37008;52.210;21.112;2022-07-29T10:38:04;24.40;52.20
50989;DHT22;37008;52.210;21.112;2022-07-29T10:43:26;24.50;50.40
50989;DHT22;37008;52.210;21.112;2022-07-29T10:45:56;24.60;49.50
50989;DHT22;37008;52.210;21.112;2022-07-29T10:48:22;24.70;49.50
50989;DHT22;37008;52.210;21.112;2022-07-29T10:51:00;24.70;49.00
50989;DHT22;37008;52.210;21.112;2022-07-29T10:53:47;24.70;49.30
50989;DHT22;37008;52.210;21.112;2022-07-29T10:56:27;24.60;48.40
50989;DHT22;37008;52.210;21.112;2022-07-29T11:01:44;24.60;50.10
50989;DHT22;37008;52.210;21.112;2022-07-29T11:04:10;24.60;50.10
50989;DHT22;37008;52.210;21.112;2022-07-29T11:09:26;24.80;50.30
50989;DHT22;37008;52.210;21.112;2022-07-29T11:11:52;24.80;49.90
50989;DHT22;37008;52.210;21.112;2022-07-29T11:14:20;24.60;48.70
50989;DHT22;37008;52.210;21.112;2022-07-29T11:17:05;24.40;48.70
50989;DHT22;37008;52.210;21.112;2022-07-29T11:19:31;24.40;49.30
50989;DHT22;37008;52.210;21.112;2022-07-29T11:21:57;24.40;49.80
50989;DHT22;37008;52.210;21.112;2022-07-29T11:24:28;24.50;49.20
50989;DHT22;37008;52.210;21.112;2022-07-29T11:29:32;24.50;48.40
50989;DHT22;37008;52.210;21.112;2022-07-29T11:32:09;24.40;48.30
50989;DHT22;37008;52.210;21.112;2022-07-29T11:34:36;24.40;48.90
50989;DHT22;37008;52.210;21.112;2022-07-29T11:40:07;24.60;49.60
50989;DHT22;37008;52.210;21.112;2022-07-29T11:45:08;24.80;49.00
50989;DHT22;37008;52.210;21.112;2022-07-29T11:47:40;24.90;49.00
50989;DHT22;37008;52.210;21.112;2022-07-29T11:50:09;25.00;50.40
50989;DHT22;37008;52.210;21.112;2022-07-29T11:52:43;25.20;49.90
50989;DHT22;37008;52.210;21.112;2022-07-29T11:55:10;25.30;47.80
50989;DHT22;37008;52.210;21.112;2022-07-29T11:57:44;25.50;47.70
50989;DHT22;37008;52.210;21.112;2022-07-29T12:00:11;25.50;48.40
50989;DHT22;37008;52.210;21.112;2022-07-29T12:02:42;25.60;47.90
50989;DHT22;37008;52.210;21.112;2022-07-29T12:05:09;25.70;47.50
50989;DHT22;37008;52.210;21.112;2022-07-29T12:07:36;25.80;46.30
50989;DHT22;37008;52.210;21.112;2022-07-29T12:10:04;25.70;46.20
50989;DHT22;37008;52.210;21.112;2022-07-29T12:12:30;25.70;47.90
50989;DHT22;37008;52.210;21.112;2022-07-29T12:14:55;25.70;46.60
50989;DHT22;37008;52.210;21.112;2022-07-29T12:17:34;25.50;46.00
50989;DHT22;37008;52.210;21.112;2022-07-29T12:20:04;25.40;46.80
50989;DHT22;37008;52.210;21.112;2022-07-29T12:22:34;25.40;46.80
50989;DHT22;37008;52.210;21.112;2022-07-29T12:25:08;25.40;46.80
50989;DHT22;37008;52.210;21.112;2022-07-29T12:27:35;25.50;47.20
50989;DHT22;37008;52.210;21.112;2022-07-29T12:30:12;25.80;46.90
50989;DHT22;37008;52.210;21.112;2022-07-29T12:35:05;26.20;45.40
50989;DHT22;37008;52.210;21.112;2022-07-29T12:37:36;26.10;45.20
50989;DHT22;37008;52.210;21.112;2022-07-29T12:40:03;26.00;45.00
50989;DHT22;37008;52.210;21.112;2022-07-29T12:42:29;25.80;45.40
50989;DHT22;37008;52.210;21.112;2022-07-29T12:44:55;25.60;46.20
50989;DHT22;37008;52.210;21.112;2022-07-29T12:47:21;25.40;48.40
50989;DHT22;37008;52.210;21.112;2022-07-29T12:49:47;25.20;49.00
50989;DHT22;37008;52.210;21.112;2022-07-29T12:52:30;25.10;48.80
50989;DHT22;37008;52.210;21.112;2022-07-29T12:54:57;25.00;48.30
50989;DHT22;37008;52.210;21.112;2022-07-29T12:57:22;24.90;47.30
50989;DHT22;37008;52.210;21.112;2022-07-29T13:00:07;25.00;48.30
50989;DHT22;37008;52.210;21.112;2022-07-29T13:02:35;25.10;47.60
50989;DHT22;37008;52.210;21.112;2022-07-29T13:05:02;25.30;47.40
50989;DHT22;37008;52.210;21.112;2022-07-29T13:07:30;25.40;47.90
50989;DHT22;37008;52.210;21.112;2022-07-29T13:10:12;25.60;47.40
50989;DHT22;37008;52.210;21.112;2022-07-29T13:12:38;25.80;47.30
50989;DHT22;37008;52.210;21.112;2022-07-29T13:15:14;26.00;47.40
50989;DHT22;37008;52.210;21.112;2022-07-29T13:17:42;26.30;46.30
50989;DHT22;37008;52.210;21.112;2022-07-29T13:20:09;26.40;46.50
50989;DHT22;37008;52.210;21.112;2022-07-29T13:22:38;26.60;46.20
50989;DHT22;37008;52.210;21.112;2022-07-29T13:25:04;26.80;45.00
50989;DHT22;37008;52.210;21.112;2022-07-29T13:27:36;26.80;44.50
50989;DHT22;37008;52.210;21.112;2022-07-29T13:30:05;27.00;44.10
50989;DHT22;37008;52.210;21.112;2022-07-29T13:32:32;27.10;44.40
50989;DHT22;37008;52.210;21.112;2022-07-29T13:35:01;27.10;43.80
50989;DHT22;37008;52.210;21.112;2022-07-29T13:37:27;27.00;43.90
50989;DHT22;37008;52.210;21.112;2022-07-29T13:39:58;26.80;45.20
50989;DHT22;37008;52.210;21.112;2022-07-29T13:42:25;26.70;44.30
50989;DHT22;37008;52.210;21.112;2022-07-29T13:44:51;26.60;44.30
50989;DHT22;37008;52.210;21.112;2022-07-29T13:47:18;26.70;44.90
50989;DHT22;37008;52.210;21.112;2022-07-29T13:49:44;26.70;44.50
50989;DHT22;37008;52.210;21.112;2022-07-29T13:52:10;26.70;44.70
50989;DHT22;37008;52.210;21.112;2022-07-29T13:54:35;26.60;43.70
50989;DHT22;37008;52.210;21.112;2022-07-29T13:57:03;26.40;43.80
50989;DHT22;37008;52.210;21.112;2022-07-29T13:59:29;26.20;44.30
50989;DHT22;37008;52.210;21.112;2022-07-29T14:01:54;25.90;44.10
50989;DHT22;37008;52.210;21.112;2022-07-29T14:04:20;25.70;44.90
50989;DHT22;37008;52.210;21.112;2022-07-29T14:06:47;25.50;46.20
50989;DHT22;37008;52.210;21.112;2022-07-29T14:09:12;25.40;45.90
50989;DHT22;37008;52.210;21.112;2022-07-29T14:11:38;25.50;46.10
50989;DHT22;37008;52.210;21.112;2022-07-29T14:14:04;25.70;46.00
50989;DHT22;37008;52.210;21.112;2022-07-29T14:16:30;25.90;45.70
50989;DHT22;37008;52.210;21.112;2022-07-29T14:18:55;26.00;45.30
50989;DHT22;37008;52.210;21.112;2022-07-29T14:21:21;26.20;43.90
50989;DHT22;37008;52.210;21.112;2022-07-29T14:23:47;26.30;43.50
50989;DHT22;37008;52.210;21.112;2022-07-29T14:26:13;26.20;43.40
50989;DHT22;37008;52.210;21.112;2022-07-29T14:28:38;26.20;43.30
50989;DHT22;37008;52.210;21.112;2022-07-29T14:31:04;26.80;43.10
50989;DHT22;37008;52.210;21.112;2022-07-29T14:33:29;27.60;42.20
50989;DHT22;37008;52.210;21.112;2022-07-29T14:35:55;28.20;40.70
50989;DHT22;37008;52.210;21.112;2022-07-29T14:38:21;29.00;39.80
50989;DHT22;37008;52.210;21.112;2022-07-29T14:40:46;29.50;38.40
50989;DHT22;37008;52.210;21.112;2022-07-29T14:43:13;29.50;37.90
50989;DHT22;37008;52.210;21.112;2022-07-29T14:45:39;29.50;38.30
50989;DHT22;37008;52.210;21.112;2022-07-29T14:48:05;29.70;38.30
50989;DHT22;37008;52.210;21.112;2022-07-29T14:50:30;30.00;37.50
50989;DHT22;37008;52.210;21.112;2022-07-29T14:52:56;30.00;36.60
50989;DHT22;37008;52.210;21.112;2022-07-29T14:55:22;29.40;37.50
50989;DHT22;37008;52.210;21.112;2022-07-29T14:57:48;28.60;38.30
50989;DHT22;37008;52.210;21.112;2022-07-29T15:00:14;28.20;38.60
50989;DHT22;37008;52.210;21.112;2022-07-29T15:02:39;27.90;38.40
50989;DHT22;37008;52.210;21.112;2022-07-29T15:05:05;27.50;39.30
50989;DHT22;37008;52.210;21.112;2022-07-29T15:07:31;27.30;40.20
50989;DHT22;37008;52.210;21.112;2022-07-29T15:09:56;27.30;40.70
50989;DHT22;37008;52.210;21.112;2022-07-29T15:12:22;27.60;40.70
50989;DHT22;37008;52.210;21.112;2022-07-29T15:14:47;28.40;40.30
50989;DHT22;37008;52.210;21.112;2022-07-29T15:17:13;29.20;38.80
50989;DHT22;37008;52.210;21.112;2022-07-29T15:19:38;29.90;39.00
50989;DHT22;37008;52.210;21.112;2022-07-29T15:22:04;30.70;37.20
50989;DHT22;37008;52.210;21.112;2022-07-29T15:24:30;31.30;36.10
50989;DHT22;37008;52.210;21.112;2022-07-29T15:26:56;31.70;34.40
50989;DHT22;37008;52.210;21.112;2022-07-29T15:29:22;31.90;34.00
50989;DHT22;37008;52.210;21.112;2022-07-29T15:31:48;32.10;33.10
50989;DHT22;37008;52.210;21.112;2022-07-29T15:34:14;32.10;33.20
50989;DHT22;37008;52.210;21.112;2022-07-29T15:36:39;32.30;33.60
50989;DHT22;37008;52.210;21.112;2022-07-29T15:39:05;32.60;32.80
50989;DHT22;37008;52.210;21.112;2022-07-29T15:41:31;32.60;32.80
50989;DHT22;37008;52.210;21.112;2022-07-29T15:43:56;32.70;32.20
50989;DHT22;37008;52.210;21.112;2022-07-29T15:46:22;32.70;32.30
50989;DHT22;37008;52.210;21.112;2022-07-29T15:49:06;32.80;32.10
50989;DHT22;37008;52.210;21.112;2022-07-29T15:51:32;32.70;32.20
50989;DHT22;37008;52.210;21.112;2022-07-29T15:54:00;32.70;32.00
50989;DHT22;37008;52.210;21.112;2022-07-29T15:56:26;32.40;30.90
50989;DHT22;37008;52.210;21.112;2022-07-29T15:58:52;31.70;31.20
50989;DHT22;37008;52.210;21.112;2022-07-29T16:01:18;30.80;32.60
50989;DHT22;37008;52.210;21.112;2022-07-29T16:03:44;30.30;33.60
50989;DHT22;37008;52.210;21.112;2022-07-29T16:06:09;29.90;35.40
50989;DHT22;37008;52.210;21.112;2022-07-29T16:08:35;29.40;35.50